sensor_id;sensor_type;location;lat;lon;timestamp;temperature;humidity
52656;SHT85;35474;51.032;6.998;2023-07-08T00:00:35;23.32;43.91
52656;SHT85;35474;51.032;6.998;2023-07-08T00:03:01;23.15;44.15
52656;SHT85;35474;51.032;6.998;2023-07-08T00:05:30;23.12;44.35
52656;SHT85;35474;51.032;6.998;2023-07-08T00:08:00;23.21;44.23
52656;SHT85;35474;51.032;6.998;2023-07-08T00:10:30;23.11;44.50
52656;SHT85;35474;51.032;6.998;2023-07-08T00:12:57;23.04;44.63
52656;SHT85;35474;51.032;6.998;2023-07-08T00:15:28;22.99;44.87
52656;SHT85;35474;51.032;6.998;2023-07-08T00:17:59;22.92;45.12
52656;SHT85;35474;51.032;6.998;2023-07-08T00:20:35;22.88;45.18
52656;SHT85;35474;51.032;6.998;2023-07-08T00:23:04;22.74;45.68
52656;SHT85;35474;51.032;6.998;2023-07-08T00:25:32;22.74;45.78
52656;SHT85;35474;51.032;6.998;2023-07-08T00:27:58;22.63;46.02
52656;SHT85;35474;51.032;6.998;2023-07-08T00:30:29;22.60;46.24
52656;SHT85;35474;51.032;6.998;2023-07-08T00:32:57;22.41;46.65
52656;SHT85;35474;51.032;6.998;2023-07-08T00:35:29;22.35;46.75
52656;SHT85;35474;51.032;6.998;2023-07-08T00:40:59;22.22;47.21
52656;SHT85;35474;51.032;6.998;2023-07-08T00:43:46;22.12;47.88
52656;SHT85;35474;51.032;6.998;2023-07-08T00:51:35;21.93;48.47
52656;SHT85;35474;51.032;6.998;2023-07-08T00:54:15;21.83;48.75
52656;SHT85;35474;51.032;6.998;2023-07-08T00:56:53;21.82;48.66
52656;SHT85;35474;51.032;6.998;2023-07-08T00:59:43;21.83;49.15
52656;SHT85;35474;51.032;6.998;2023-07-08T01:02:15;21.86;48.66
52656;SHT85;35474;51.032;6.998;2023-07-08T01:07:30;21.90;48.51
52656;SHT85;35474;51.032;6.998;2023-07-08T01:10:04;21.72;49.15
52656;SHT85;35474;51.032;6.998;2023-07-08T01:12:40;21.74;49.24
52656;SHT85;35474;51.032;6.998;2023-07-08T01:15:12;21.69;49.39
52656;SHT85;35474;51.032;6.998;2023-07-08T01:17:41;21.65;49.61
52656;SHT85;35474;51.032;6.998;2023-07-08T01:20:10;21.57;49.89
52656;SHT85;35474;51.032;6.998;2023-07-08T01:22:39;21.41;50.59
52656;SHT85;35474;51.032;6.998;2023-07-08T01:25:08;21.48;50.60
52656;SHT85;35474;51.032;6.998;2023-07-08T01:27:38;21.58;50.70
52656;SHT85;35474;51.032;6.998;2023-07-08T01:30:07;21.57;50.73
52656;SHT85;35474;51.032;6.998;2023-07-08T01:32:48;21.54;51.47
52656;SHT85;35474;51.032;6.998;2023-07-08T01:35:20;21.41;51.67
52656;SHT85;35474;51.032;6.998;2023-07-08T01:37:49;21.44;51.66
52656;SHT85;35474;51.032;6.998;2023-07-08T01:40:30;21.51;51.50
52656;SHT85;35474;51.032;6.998;2023-07-08T01:42:59;21.31;52.08
52656;SHT85;35474;51.032;6.998;2023-07-08T01:45:28;21.27;52.14
52656;SHT85;35474;51.032;6.998;2023-07-08T01:47:59;21.17;52.59
52656;SHT85;35474;51.032;6.998;2023-07-08T01:50:31;21.38;51.51
52656;SHT85;35474;51.032;6.998;2023-07-08T01:53:00;21.31;51.66
52656;SHT85;35474;51.032;6.998;2023-07-08T01:55:31;21.26;51.70
52656;SHT85;35474;51.032;6.998;2023-07-08T01:57:58;21.17;52.43
52656;SHT85;35474;51.032;6.998;2023-07-08T02:00:24;21.16;52.85
52656;SHT85;35474;51.032;6.998;2023-07-08T02:02:51;21.32;51.71
52656;SHT85;35474;51.032;6.998;2023-07-08T02:05:18;21.23;52.57
52656;SHT85;35474;51.032;6.998;2023-07-08T02:07:44;21.14;53.14
52656;SHT85;35474;51.032;6.998;2023-07-08T02:10:15;21.06;53.07
52656;SHT85;35474;51.032;6.998;2023-07-08T02:12:42;21.04;52.96
52656;SHT85;35474;51.032;6.998;2023-07-08T02:15:09;21.02;53.41
52656;SHT85;35474;51.032;6.998;2023-07-08T02:17:36;20.99;53.59
52656;SHT85;35474;51.032;6.998;2023-07-08T02:20:03;20.87;53.87
52656;SHT85;35474;51.032;6.998;2023-07-08T02:22:30;20.90;53.73
52656;SHT85;35474;51.032;6.998;2023-07-08T02:24:57;20.86;53.76
52656;SHT85;35474;51.032;6.998;2023-07-08T02:27:23;20.87;53.90
52656;SHT85;35474;51.032;6.998;2023-07-08T02:29:50;20.89;54.05
52656;SHT85;35474;51.032;6.998;2023-07-08T02:32:18;20.69;55.23
52656;SHT85;35474;51.032;6.998;2023-07-08T02:34:45;20.65;55.44
52656;SHT85;35474;51.032;6.998;2023-07-08T02:37:11;20.45;55.96
52656;SHT85;35474;51.032;6.998;2023-07-08T02:39:38;20.46;56.12
52656;SHT85;35474;51.032;6.998;2023-07-08T02:42:05;20.38;56.40
52656;SHT85;35474;51.032;6.998;2023-07-08T02:44:31;20.46;56.34
52656;SHT85;35474;51.032;6.998;2023-07-08T02:46:59;20.24;57.07
52656;SHT85;35474;51.032;6.998;2023-07-08T02:49:26;20.26;56.88
52656;SHT85;35474;51.032;6.998;2023-07-08T02:51:53;20.42;56.65
52656;SHT85;35474;51.032;6.998;2023-07-08T02:54:19;20.11;57.41
52656;SHT85;35474;51.032;6.998;2023-07-08T02:56:48;20.00;57.84
52656;SHT85;35474;51.032;6.998;2023-07-08T02:59:14;19.97;58.28
52656;SHT85;35474;51.032;6.998;2023-07-08T03:01:41;20.07;58.23
52656;SHT85;35474;51.032;6.998;2023-07-08T03:04:09;19.94;58.48
52656;SHT85;35474;51.032;6.998;2023-07-08T03:06:42;19.88;58.65
52656;SHT85;35474;51.032;6.998;2023-07-08T03:09:10;20.10;58.54
52656;SHT85;35474;51.032;6.998;2023-07-08T03:11:38;19.83;59.31
52656;SHT85;35474;51.032;6.998;2023-07-08T03:14:05;19.88;59.49
52656;SHT85;35474;51.032;6.998;2023-07-08T03:16:32;19.73;59.82
52656;SHT85;35474;51.032;6.998;2023-07-08T03:18:59;19.81;59.58
52656;SHT85;35474;51.032;6.998;2023-07-08T03:21:26;19.77;59.63
52656;SHT85;35474;51.032;6.998;2023-07-08T03:23:53;19.67;59.91
52656;SHT85;35474;51.032;6.998;2023-07-08T03:26:23;19.71;59.88
52656;SHT85;35474;51.032;6.998;2023-07-08T03:28:51;19.74;59.66
52656;SHT85;35474;51.032;6.998;2023-07-08T03:31:18;19.70;59.60
52656;SHT85;35474;51.032;6.998;2023-07-08T03:33:46;19.76;59.87
52656;SHT85;35474;51.032;6.998;2023-07-08T03:36:14;20.11;58.26
52656;SHT85;35474;51.032;6.998;2023-07-08T03:38:52;19.94;59.51
52656;SHT85;35474;51.032;6.998;2023-07-08T03:41:21;20.18;59.27
52656;SHT85;35474;51.032;6.998;2023-07-08T03:43:48;20.01;59.69
52656;SHT85;35474;51.032;6.998;2023-07-08T03:46:17;19.98;59.74
52656;SHT85;35474;51.032;6.998;2023-07-08T03:48:44;20.05;59.53
52656;SHT85;35474;51.032;6.998;2023-07-08T03:51:19;20.13;59.72
52656;SHT85;35474;51.032;6.998;2023-07-08T03:53:48;20.08;59.51
52656;SHT85;35474;51.032;6.998;2023-07-08T03:56:15;20.08;59.71
52656;SHT85;35474;51.032;6.998;2023-07-08T03:58:41;19.84;60.29
52656;SHT85;35474;51.032;6.998;2023-07-08T04:01:15;19.91;60.02
52656;SHT85;35474;51.032;6.998;2023-07-08T04:03:43;19.94;59.77
52656;SHT85;35474;51.032;6.998;2023-07-08T04:06:11;19.91;60.05
52656;SHT85;35474;51.032;6.998;2023-07-08T04:08:37;19.97;60.02
52656;SHT85;35474;51.032;6.998;2023-07-08T04:11:04;19.98;59.91
52656;SHT85;35474;51.032;6.998;2023-07-08T04:13:31;20.00;59.70
52656;SHT85;35474;51.032;6.998;2023-07-08T04:16:02;20.18;59.18
52656;SHT85;35474;51.032;6.998;2023-07-08T04:18:31;20.03;59.34
52656;SHT85;35474;51.032;6.998;2023-07-08T04:20:58;20.01;59.86
52656;SHT85;35474;51.032;6.998;2023-07-08T04:23:28;19.97;60.18
52656;SHT85;35474;51.032;6.998;2023-07-08T04:25:55;19.91;60.16
52656;SHT85;35474;51.032;6.998;2023-07-08T04:28:23;19.84;60.53
52656;SHT85;35474;51.032;6.998;2023-07-08T04:30:49;19.80;60.73
52656;SHT85;35474;51.032;6.998;2023-07-08T04:33:16;19.78;60.70
52656;SHT85;35474;51.032;6.998;2023-07-08T04:35:43;19.74;61.14
52656;SHT85;35474;51.032;6.998;2023-07-08T04:38:18;19.77;60.74
52656;SHT85;35474;51.032;6.998;2023-07-08T04:40:47;19.88;60.64
52656;SHT85;35474;51.032;6.998;2023-07-08T04:43:15;19.66;61.09
52656;SHT85;35474;51.032;6.998;2023-07-08T04:45:48;19.63;61.32
52656;SHT85;35474;51.032;6.998;2023-07-08T04:48:20;19.73;60.48
52656;SHT85;35474;51.032;6.998;2023-07-08T04:50:51;19.73;60.76
52656;SHT85;35474;51.032;6.998;2023-07-08T04:53:18;19.87;59.99
52656;SHT85;35474;51.032;6.998;2023-07-08T04:55:47;19.70;60.03
52656;SHT85;35474;51.032;6.998;2023-07-08T04:58:21;19.85;60.17
52656;SHT85;35474;51.032;6.998;2023-07-08T05:00:48;19.84;60.46
52656;SHT85;35474;51.032;6.998;2023-07-08T05:03:14;19.87;60.19
52656;SHT85;35474;51.032;6.998;2023-07-08T05:05:42;20.00;59.61
52656;SHT85;35474;51.032;6.998;2023-07-08T05:08:08;20.14;59.46
52656;SHT85;35474;51.032;6.998;2023-07-08T05:10:35;20.17;59.48
52656;SHT85;35474;51.032;6.998;2023-07-08T05:13:04;20.29;59.19
52656;SHT85;35474;51.032;6.998;2023-07-08T05:15:31;20.41;58.10
52656;SHT85;35474;51.032;6.998;2023-07-08T05:17:57;20.42;57.87
52656;SHT85;35474;51.032;6.998;2023-07-08T05:20:24;20.52;57.55
52656;SHT85;35474;51.032;6.998;2023-07-08T05:22:50;20.56;57.33
52656;SHT85;35474;51.032;6.998;2023-07-08T05:25:18;20.68;56.73
52656;SHT85;35474;51.032;6.998;2023-07-08T05:27:47;20.75;56.90
52656;SHT85;35474;51.032;6.998;2023-07-08T05:30:17;20.89;56.79
52656;SHT85;35474;51.032;6.998;2023-07-08T05:32:44;20.97;56.25
52656;SHT85;35474;51.032;6.998;2023-07-08T05:35:13;21.04;55.89
52656;SHT85;35474;51.032;6.998;2023-07-08T05:37:40;21.11;55.60
52656;SHT85;35474;51.032;6.998;2023-07-08T05:40:07;21.24;55.12
52656;SHT85;35474;51.032;6.998;2023-07-08T05:42:35;21.31;54.89
52656;SHT85;35474;51.032;6.998;2023-07-08T05:45:02;21.38;55.06
52656;SHT85;35474;51.032;6.998;2023-07-08T05:47:30;21.55;54.18
52656;SHT85;35474;51.032;6.998;2023-07-08T05:49:57;21.71;54.19
52656;SHT85;35474;51.032;6.998;2023-07-08T05:52:23;21.90;53.63
52656;SHT85;35474;51.032;6.998;2023-07-08T05:54:50;22.03;52.54
52656;SHT85;35474;51.032;6.998;2023-07-08T05:57:17;22.25;52.65
52656;SHT85;35474;51.032;6.998;2023-07-08T05:59:44;22.36;52.34
52656;SHT85;35474;51.032;6.998;2023-07-08T06:02:11;22.46;51.54
52656;SHT85;35474;51.032;6.998;2023-07-08T06:04:39;22.48;51.01
52656;SHT85;35474;51.032;6.998;2023-07-08T06:07:06;22.68;51.00
52656;SHT85;35474;51.032;6.998;2023-07-08T06:09:32;22.63;50.86
52656;SHT85;35474;51.032;6.998;2023-07-08T06:11:59;22.43;51.64
52656;SHT85;35474;51.032;6.998;2023-07-08T06:14:26;22.47;51.89
52656;SHT85;35474;51.032;6.998;2023-07-08T06:16:53;22.43;50.59
52656;SHT85;35474;51.032;6.998;2023-07-08T06:19:21;22.40;51.25
52656;SHT85;35474;51.032;6.998;2023-07-08T06:21:48;22.36;51.70
52656;SHT85;35474;51.032;6.998;2023-07-08T06:24:15;22.40;51.59
52656;SHT85;35474;51.032;6.998;2023-07-08T06:26:41;22.37;51.30
52656;SHT85;35474;51.032;6.998;2023-07-08T06:32:34;22.70;50.60
52656;SHT85;35474;51.032;6.998;2023-07-08T06:35:01;22.80;48.76
52656;SHT85;35474;51.032;6.998;2023-07-08T06:37:28;22.78;49.22
52656;SHT85;35474;51.032;6.998;2023-07-08T06:39:54;22.90;49.81
52656;SHT85;35474;51.032;6.998;2023-07-08T06:42:21;23.07;49.05
52656;SHT85;35474;51.032;6.998;2023-07-08T06:44:49;23.18;49.16
52656;SHT85;35474;51.032;6.998;2023-07-08T06:47:19;23.34;49.70
52656;SHT85;35474;51.032;6.998;2023-07-08T06:49:47;23.39;48.92
52656;SHT85;35474;51.032;6.998;2023-07-08T06:52:14;23.34;48.56
52656;SHT85;35474;51.032;6.998;2023-07-08T06:54:41;23.42;48.68
52656;SHT85;35474;51.032;6.998;2023-07-08T06:57:07;23.52;48.52
52656;SHT85;35474;51.032;6.998;2023-07-08T06:59:34;23.59;47.53
52656;SHT85;35474;51.032;6.998;2023-07-08T07:02:01;23.72;48.12
52656;SHT85;35474;51.032;6.998;2023-07-08T07:04:28;23.89;47.85
52656;SHT85;35474;51.032;6.998;2023-07-08T07:06:58;24.00;47.27
52656;SHT85;35474;51.032;6.998;2023-07-08T07:09:25;24.17;46.92
52656;SHT85;35474;51.032;6.998;2023-07-08T07:11:51;24.32;46.01
52656;SHT85;35474;51.032;6.998;2023-07-08T07:14:19;24.55;45.77
52656;SHT85;35474;51.032;6.998;2023-07-08T07:16:51;24.62;45.58
52656;SHT85;35474;51.032;6.998;2023-07-08T07:19:34;24.72;45.23
52656;SHT85;35474;51.032;6.998;2023-07-08T07:22:01;24.85;45.66
52656;SHT85;35474;51.032;6.998;2023-07-08T07:24:28;24.96;45.22
52656;SHT85;35474;51.032;6.998;2023-07-08T07:27:00;25.04;44.13
52656;SHT85;35474;51.032;6.998;2023-07-08T07:29:50;25.18;43.98
52656;SHT85;35474;51.032;6.998;2023-07-08T07:32:17;25.24;43.56
52656;SHT85;35474;51.032;6.998;2023-07-08T07:34:46;25.53;43.65
52656;SHT85;35474;51.032;6.998;2023-07-08T07:37:14;25.73;43.17
52656;SHT85;35474;51.032;6.998;2023-07-08T07:39:43;25.80;43.16
52656;SHT85;35474;51.032;6.998;2023-07-08T07:42:11;25.85;42.99
52656;SHT85;35474;51.032;6.998;2023-07-08T07:44:42;26.01;41.72
52656;SHT85;35474;51.032;6.998;2023-07-08T07:47:10;25.94;42.39
52656;SHT85;35474;51.032;6.998;2023-07-08T07:49:38;25.98;41.80
52656;SHT85;35474;51.032;6.998;2023-07-08T07:52:08;26.01;42.47
52656;SHT85;35474;51.032;6.998;2023-07-08T07:54:38;26.15;41.46
52656;SHT85;35474;51.032;6.998;2023-07-08T07:57:05;26.35;41.72
52656;SHT85;35474;51.032;6.998;2023-07-08T07:59:32;26.45;41.16
52656;SHT85;35474;51.032;6.998;2023-07-08T08:01:58;26.62;40.57
52656;SHT85;35474;51.032;6.998;2023-07-08T08:04:25;26.69;38.99
52656;SHT85;35474;51.032;6.998;2023-07-08T08:06:51;26.70;39.14
52656;SHT85;35474;51.032;6.998;2023-07-08T08:09:18;26.74;38.82
52656;SHT85;35474;51.032;6.998;2023-07-08T08:11:45;26.97;38.57
52656;SHT85;35474;51.032;6.998;2023-07-08T08:14:11;26.98;38.53
52656;SHT85;35474;51.032;6.998;2023-07-08T08:16:38;26.79;38.80
52656;SHT85;35474;51.032;6.998;2023-07-08T08:19:04;26.67;39.30
52656;SHT85;35474;51.032;6.998;2023-07-08T08:21:34;26.73;39.48
52656;SHT85;35474;51.032;6.998;2023-07-08T08:24:00;26.82;39.50
52656;SHT85;35474;51.032;6.998;2023-07-08T08:26:27;27.57;37.91
52656;SHT85;35474;51.032;6.998;2023-07-08T08:28:55;28.33;37.02
52656;SHT85;35474;51.032;6.998;2023-07-08T08:31:21;27.72;37.94
52656;SHT85;35474;51.032;6.998;2023-07-08T08:33:49;28.17;37.38
52656;SHT85;35474;51.032;6.998;2023-07-08T08:36:17;27.39;38.77
52656;SHT85;35474;51.032;6.998;2023-07-08T08:38:44;27.83;37.48
52656;SHT85;35474;51.032;6.998;2023-07-08T08:41:14;29.62;35.59
52656;SHT85;35474;51.032;6.998;2023-07-08T08:43:45;28.88;35.94
52656;SHT85;35474;51.032;6.998;2023-07-08T08:51:56;30.13;34.14
52656;SHT85;35474;51.032;6.998;2023-07-08T08:54:25;31.89;32.11
52656;SHT85;35474;51.032;6.998;2023-07-08T09:02:28;30.63;33.17
52656;SHT85;35474;51.032;6.998;2023-07-08T09:05:02;29.81;34.35
52656;SHT85;35474;51.032;6.998;2023-07-08T09:08:00;30.04;34.40
52656;SHT85;35474;51.032;6.998;2023-07-08T09:13:30;30.75;32.87
52656;SHT85;35474;51.032;6.998;2023-07-08T09:16:02;30.29;34.33
52656;SHT85;35474;51.032;6.998;2023-07-08T09:18:33;30.99;32.76
52656;SHT85;35474;51.032;6.998;2023-07-08T09:21:24;30.46;33.89
52656;SHT85;35474;51.032;6.998;2023-07-08T09:23:55;30.83;33.05
52656;SHT85;35474;51.032;6.998;2023-07-08T09:26:27;30.13;34.40
52656;SHT85;35474;51.032;6.998;2023-07-08T09:28:55;31.19;32.76
52656;SHT85;35474;51.032;6.998;2023-07-08T09:33:51;31.13;32.55
52656;SHT85;35474;51.032;6.998;2023-07-08T09:36:23;30.94;33.05
52656;SHT85;35474;51.032;6.998;2023-07-08T09:38:51;32.10;31.59
52656;SHT85;35474;51.032;6.998;2023-07-08T09:41:33;32.13;31.75
52656;SHT85;35474;51.032;6.998;2023-07-08T09:44:06;31.37;33.17
52656;SHT85;35474;51.032;6.998;2023-07-08T09:46:53;32.36;31.58
52656;SHT85;35474;51.032;6.998;2023-07-08T09:49:23;32.72;31.05
52656;SHT85;35474;51.032;6.998;2023-07-08T09:51:53;31.61;32.10
52656;SHT85;35474;51.032;6.998;2023-07-08T09:54:22;32.04;31.75
52656;SHT85;35474;51.032;6.998;2023-07-08T09:59:28;32.09;32.24
52656;SHT85;35474;51.032;6.998;2023-07-08T10:02:01;31.85;32.60
52656;SHT85;35474;51.032;6.998;2023-07-08T10:04:45;33.24;30.87
52656;SHT85;35474;51.032;6.998;2023-07-08T10:07:15;32.74;31.40
52656;SHT85;35474;51.032;6.998;2023-07-08T10:09:43;33.66;30.14
52656;SHT85;35474;51.032;6.998;2023-07-08T10:12:15;31.98;32.13
52656;SHT85;35474;51.032;6.998;2023-07-08T10:14:46;32.12;32.02
52656;SHT85;35474;51.032;6.998;2023-07-08T10:17:17;33.54;30.26
52656;SHT85;35474;51.032;6.998;2023-07-08T10:19:48;33.58;29.87
52656;SHT85;35474;51.032;6.998;2023-07-08T10:25:35;33.30;30.10
52656;SHT85;35474;51.032;6.998;2023-07-08T10:28:37;33.27;30.16
52656;SHT85;35474;51.032;6.998;2023-07-08T10:36:29;34.71;28.56
52656;SHT85;35474;51.032;6.998;2023-07-08T10:47:36;35.81;27.26
52656;SHT85;35474;51.032;6.998;2023-07-08T10:50:20;35.78;27.21
52656;SHT85;35474;51.032;6.998;2023-07-08T10:55:59;35.99;27.07
52656;SHT85;35474;51.032;6.998;2023-07-08T11:02:00;35.55;26.99
52656;SHT85;35474;51.032;6.998;2023-07-08T11:07:57;35.49;26.92
52656;SHT85;35474;51.032;6.998;2023-07-08T11:10:36;34.66;28.41
52656;SHT85;35474;51.032;6.998;2023-07-08T11:13:13;34.46;28.93
52656;SHT85;35474;51.032;6.998;2023-07-08T11:15:52;36.35;26.52
52656;SHT85;35474;51.032;6.998;2023-07-08T11:18:40;36.74;26.47
52656;SHT85;35474;51.032;6.998;2023-07-08T11:21:14;36.63;25.21
52656;SHT85;35474;51.032;6.998;2023-07-08T11:24:32;36.26;25.60
52656;SHT85;35474;51.032;6.998;2023-07-08T11:26:39;36.50;25.42
52656;SHT85;35474;51.032;6.998;2023-07-08T11:29:54;36.73;25.90
52656;SHT85;35474;51.032;6.998;2023-07-08T11:32:01;38.16;23.99
52656;SHT85;35474;51.032;6.998;2023-07-08T11:34:30;37.63;24.62
52656;SHT85;35474;51.032;6.998;2023-07-08T11:36:59;38.34;24.13
52656;SHT85;35474;51.032;6.998;2023-07-08T11:39:28;36.48;25.62
52656;SHT85;35474;51.032;6.998;2023-07-08T11:44:53;36.94;25.15
52656;SHT85;35474;51.032;6.998;2023-07-08T11:47:33;37.61;24.17
52656;SHT85;35474;51.032;6.998;2023-07-08T11:52:58;37.80;23.18
52656;SHT85;35474;51.032;6.998;2023-07-08T11:58:23;37.10;24.83
52656;SHT85;35474;51.032;6.998;2023-07-08T12:00:54;38.19;23.51
52656;SHT85;35474;51.032;6.998;2023-07-08T12:03:31;38.64;23.29
52656;SHT85;35474;51.032;6.998;2023-07-08T12:06:07;37.90;23.27
52656;SHT85;35474;51.032;6.998;2023-07-08T12:08:52;38.06;23.28
52656;SHT85;35474;51.032;6.998;2023-07-08T12:11:35;37.97;23.44
52656;SHT85;35474;51.032;6.998;2023-07-08T12:14:02;39.02;22.21
52656;SHT85;35474;51.032;6.998;2023-07-08T12:16:30;37.62;23.22
52656;SHT85;35474;51.032;6.998;2023-07-08T12:18:58;36.53;23.97
52656;SHT85;35474;51.032;6.998;2023-07-08T12:21:27;36.20;24.90
52656;SHT85;35474;51.032;6.998;2023-07-08T12:23:54;37.51;23.58
52656;SHT85;35474;51.032;6.998;2023-07-08T12:26:21;36.80;24.24
52656;SHT85;35474;51.032;6.998;2023-07-08T12:28:54;36.80;24.45
52656;SHT85;35474;51.032;6.998;2023-07-08T12:31:28;35.01;25.94
52656;SHT85;35474;51.032;6.998;2023-07-08T12:33:58;35.61;25.56
52656;SHT85;35474;51.032;6.998;2023-07-08T12:36:32;36.32;24.92
52656;SHT85;35474;51.032;6.998;2023-07-08T12:39:02;36.56;24.61
52656;SHT85;35474;51.032;6.998;2023-07-08T12:41:36;37.48;23.01
52656;SHT85;35474;51.032;6.998;2023-07-08T12:44:08;37.04;23.49
52656;SHT85;35474;51.032;6.998;2023-07-08T12:46:46;37.31;23.16
52656;SHT85;35474;51.032;6.998;2023-07-08T12:49:16;38.27;22.40
52656;SHT85;35474;51.032;6.998;2023-07-08T12:51:45;39.24;21.84
52656;SHT85;35474;51.032;6.998;2023-07-08T12:54:21;39.94;21.20
52656;SHT85;35474;51.032;6.998;2023-07-08T12:56:52;38.16;22.10
52656;SHT85;35474;51.032;6.998;2023-07-08T12:59:27;36.43;24.29
52656;SHT85;35474;51.032;6.998;2023-07-08T13:01:56;35.64;25.27
52656;SHT85;35474;51.032;6.998;2023-07-08T13:04:24;36.08;24.35
52656;SHT85;35474;51.032;6.998;2023-07-08T13:06:51;36.64;24.45
52656;SHT85;35474;51.032;6.998;2023-07-08T13:09:22;35.98;25.07
52656;SHT85;35474;51.032;6.998;2023-07-08T13:12:10;35.57;24.97
52656;SHT85;35474;51.032;6.998;2023-07-08T13:15:03;35.92;24.58
52656;SHT85;35474;51.032;6.998;2023-07-08T13:17:35;36.41;24.53
52656;SHT85;35474;51.032;6.998;2023-07-08T13:20:04;37.85;23.42
52656;SHT85;35474;51.032;6.998;2023-07-08T13:22:34;36.43;25.23
52656;SHT85;35474;51.032;6.998;2023-07-08T13:25:09;36.84;24.37
52656;SHT85;35474;51.032;6.998;2023-07-08T13:27:54;36.78;24.83
52656;SHT85;35474;51.032;6.998;2023-07-08T13:30:23;37.92;23.75
52656;SHT85;35474;51.032;6.998;2023-07-08T13:32:53;36.83;24.96
52656;SHT85;35474;51.032;6.998;2023-07-08T13:37:55;37.48;24.24
52656;SHT85;35474;51.032;6.998;2023-07-08T13:40:22;38.87;23.14
52656;SHT85;35474;51.032;6.998;2023-07-08T13:42:53;37.72;23.80
52656;SHT85;35474;51.032;6.998;2023-07-08T13:45:27;37.15;24.76
52656;SHT85;35474;51.032;6.998;2023-07-08T13:48:00;38.00;23.81
52656;SHT85;35474;51.032;6.998;2023-07-08T13:50:50;36.97;25.29
52656;SHT85;35474;51.032;6.998;2023-07-08T13:53:26;37.56;24.44
52656;SHT85;35474;51.032;6.998;2023-07-08T13:56:19;37.38;23.59
52656;SHT85;35474;51.032;6.998;2023-07-08T13:58:59;38.45;22.58
52656;SHT85;35474;51.032;6.998;2023-07-08T14:01:31;38.92;22.40
52656;SHT85;35474;51.032;6.998;2023-07-08T14:03:59;39.97;21.37
52656;SHT85;35474;51.032;6.998;2023-07-08T14:06:34;41.16;20.54
52656;SHT85;35474;51.032;6.998;2023-07-08T14:09:14;41.50;20.45
52656;SHT85;35474;51.032;6.998;2023-07-08T14:11:46;41.97;19.62
52656;SHT85;35474;51.032;6.998;2023-07-08T14:14:14;41.45;20.12
52656;SHT85;35474;51.032;6.998;2023-07-08T14:16:51;41.67;20.47
52656;SHT85;35474;51.032;6.998;2023-07-08T14:21:59;39.84;22.74
52656;SHT85;35474;51.032;6.998;2023-07-08T14:24:28;37.65;24.41
52656;SHT85;35474;51.032;6.998;2023-07-08T14:26:55;37.51;24.99
52656;SHT85;35474;51.032;6.998;2023-07-08T14:29:24;37.79;24.75
52656;SHT85;35474;51.032;6.998;2023-07-08T14:31:54;37.32;25.30
52656;SHT85;35474;51.032;6.998;2023-07-08T14:34:25;36.95;25.40
52656;SHT85;35474;51.032;6.998;2023-07-08T14:36:53;36.56;25.87
52656;SHT85;35474;51.032;6.998;2023-07-08T14:39:20;36.21;26.16
52656;SHT85;35474;51.032;6.998;2023-07-08T14:41:48;35.99;26.46
52656;SHT85;35474;51.032;6.998;2023-07-08T14:44:32;35.89;26.57
52656;SHT85;35474;51.032;6.998;2023-07-08T14:47:01;36.29;26.07
52656;SHT85;35474;51.032;6.998;2023-07-08T14:49:29;37.14;25.55
52656;SHT85;35474;51.032;6.998;2023-07-08T14:51:55;36.91;25.71
52656;SHT85;35474;51.032;6.998;2023-07-08T14:54:22;37.49;25.61
52656;SHT85;35474;51.032;6.998;2023-07-08T14:56:48;38.07;24.89
52656;SHT85;35474;51.032;6.998;2023-07-08T14:59:17;37.78;25.10
52656;SHT85;35474;51.032;6.998;2023-07-08T15:01:47;37.83;24.92
52656;SHT85;35474;51.032;6.998;2023-07-08T15:04:15;37.68;24.91
52656;SHT85;35474;51.032;6.998;2023-07-08T15:06:44;37.42;25.44
52656;SHT85;35474;51.032;6.998;2023-07-08T15:09:15;37.31;25.71
52656;SHT85;35474;51.032;6.998;2023-07-08T15:11:44;36.74;26.76
52656;SHT85;35474;51.032;6.998;2023-07-08T15:14:21;36.27;26.93
52656;SHT85;35474;51.032;6.998;2023-07-08T15:16:49;36.12;27.08
52656;SHT85;35474;51.032;6.998;2023-07-08T15:19:17;36.27;26.91
52656;SHT85;35474;51.032;6.998;2023-07-08T15:21:45;36.80;26.66
52656;SHT85;35474;51.032;6.998;2023-07-08T15:24:12;36.99;26.50
52656;SHT85;35474;51.032;6.998;2023-07-08T15:26:44;36.73;26.35
52656;SHT85;35474;51.032;6.998;2023-07-08T15:29:14;36.47;26.78
52656;SHT85;35474;51.032;6.998;2023-07-08T15:31:44;36.00;27.16
52656;SHT85;35474;51.032;6.998;2023-07-08T15:34:14;36.09;27.28
52656;SHT85;35474;51.032;6.998;2023-07-08T15:36:43;36.19;26.97
52656;SHT85;35474;51.032;6.998;2023-07-08T15:39:10;36.02;26.78
52656;SHT85;35474;51.032;6.998;2023-07-08T15:41:37;36.36;26.80
52656;SHT85;35474;51.032;6.998;2023-07-08T15:44:10;36.41;26.43
52656;SHT85;35474;51.032;6.998;2023-07-08T15:46:45;37.05;26.51
52656;SHT85;35474;51.032;6.998;2023-07-08T15:49:18;37.66;25.82
52656;SHT85;35474;51.032;6.998;2023-07-08T15:51:49;37.46;25.47
52656;SHT85;35474;51.032;6.998;2023-07-08T15:54:21;37.10;26.26
52656;SHT85;35474;51.032;6.998;2023-07-08T15:56:51;36.81;26.82
52656;SHT85;35474;51.032;6.998;2023-07-08T15:59:21;36.78;26.59
52656;SHT85;35474;51.032;6.998;2023-07-08T16:01:51;36.51;26.95
52656;SHT85;35474;51.032;6.998;2023-07-08T16:04:21;36.32;27.35
52656;SHT85;35474;51.032;6.998;2023-07-08T16:06:50;36.13;27.30
52656;SHT85;35474;51.032;6.998;2023-07-08T16:09:16;35.92;27.53
52656;SHT85;35474;51.032;6.998;2023-07-08T16:11:43;36.66;27.15
52656;SHT85;35474;51.032;6.998;2023-07-08T16:14:11;36.70;26.91
52656;SHT85;35474;51.032;6.998;2023-07-08T16:16:40;36.36;27.38
52656;SHT85;35474;51.032;6.998;2023-07-08T16:19:10;36.09;27.85
52656;SHT85;35474;51.032;6.998;2023-07-08T16:21:38;35.99;27.98
52656;SHT85;35474;51.032;6.998;2023-07-08T16:24:05;35.85;28.32
52656;SHT85;35474;51.032;6.998;2023-07-08T16:26:33;35.79;28.27
52656;SHT85;35474;51.032;6.998;2023-07-08T16:29:00;35.89;28.44
52656;SHT85;35474;51.032;6.998;2023-07-08T16:31:28;36.36;27.42
52656;SHT85;35474;51.032;6.998;2023-07-08T16:33:55;36.27;27.71
52656;SHT85;35474;51.032;6.998;2023-07-08T16:36:23;36.41;27.65
52656;SHT85;35474;51.032;6.998;2023-07-08T16:38:53;36.95;27.03
52656;SHT85;35474;51.032;6.998;2023-07-08T16:41:21;36.88;27.07
52656;SHT85;35474;51.032;6.998;2023-07-08T16:43:51;36.44;27.41
52656;SHT85;35474;51.032;6.998;2023-07-08T16:46:19;36.48;27.31
52656;SHT85;35474;51.032;6.998;2023-07-08T16:48:46;36.35;27.38
52656;SHT85;35474;51.032;6.998;2023-07-08T16:51:14;36.78;27.13
52656;SHT85;35474;51.032;6.998;2023-07-08T16:53:43;36.83;27.32
52656;SHT85;35474;51.032;6.998;2023-07-08T16:56:11;36.46;27.36
52656;SHT85;35474;51.032;6.998;2023-07-08T16:58:38;36.20;28.07
52656;SHT85;35474;51.032;6.998;2023-07-08T17:01:17;35.17;30.68
52656;SHT85;35474;51.032;6.998;2023-07-08T17:03:49;33.98;33.04